sensor_id;sensor_type;location;lat;lon;timestamp;P1;durP1;ratioP1;P2;durP2;ratioP2
11453;SDS011;5783;55.174;61.310;2022-12-29T00:00:38;2.03;;;1.83;;
11453;SDS011;5783;55.174;61.310;2022-12-29T00:03:07;2.30;;;1.90;;
11453;SDS011;5783;55.174;61.310;2022-12-29T00:05:36;2.17;;;1.90;;
11453;SDS011;5783;55.174;61.310;2022-12-29T00:08:24;1.90;;;1.80;;
11453;SDS011;5783;55.174;61.310;2022-12-29T00:10:55;1.93;;;1.73;;
11453;SDS011;5783;55.174;61.310;2022-12-29T00:13:26;2.20;;;2.00;;
11453;SDS011;5783;55.174;61.310;2022-12-29T00:16:14;1.70;;;1.53;;
11453;SDS011;5783;55.174;61.310;2022-12-29T00:18:43;1.87;;;1.70;;
11453;SDS011;5783;55.174;61.310;2022-12-29T00:24:21;1.80;;;1.70;;
11453;SDS011;5783;55.174;61.310;2022-12-29T00:27:11;1.70;;;1.60;;
11453;SDS011;5783;55.174;61.310;2022-12-29T00:30:00;2.17;;;1.97;;
11453;SDS011;5783;55.174;61.310;2022-12-29T00:32:50;1.73;;;1.60;;
11453;SDS011;5783;55.174;61.310;2022-12-29T00:35:39;1.63;;;1.53;;
11453;SDS011;5783;55.174;61.310;2022-12-29T00:38:10;1.70;;;1.60;;
11453;SDS011;5783;55.174;61.310;2022-12-29T00:41:00;2.43;;;1.70;;
11453;SDS011;5783;55.174;61.310;2022-12-29T00:43:48;2.10;;;1.80;;
11453;SDS011;5783;55.174;61.310;2022-12-29T00:46:37;2.23;;;1.73;;
11453;SDS011;5783;55.174;61.310;2022-12-29T00:49:08;2.00;;;1.70;;
11453;SDS011;5783;55.174;61.310;2022-12-29T00:54:32;1.63;;;1.53;;
11453;SDS011;5783;55.174;61.310;2022-12-29T00:57:04;2.37;;;1.83;;
11453;SDS011;5783;55.174;61.310;2022-12-29T00:59:35;1.87;;;1.60;;
11453;SDS011;5783;55.174;61.310;2022-12-29T01:02:05;1.80;;;1.70;;
11453;SDS011;5783;55.174;61.310;2022-12-29T01:04:34;1.70;;;1.60;;
11453;SDS011;5783;55.174;61.310;2022-12-29T01:07:03;1.60;;;1.50;;
11453;SDS011;5783;55.174;61.310;2022-12-29T01:09:33;2.13;;;1.80;;
11453;SDS011;5783;55.174;61.310;2022-12-29T01:12:21;1.73;;;1.57;;
11453;SDS011;5783;55.174;61.310;2022-12-29T01:15:11;1.70;;;1.60;;
11453;SDS011;5783;55.174;61.310;2022-12-29T01:17:42;1.90;;;1.77;;
11453;SDS011;5783;55.174;61.310;2022-12-29T01:20:11;1.83;;;1.50;;
11453;SDS011;5783;55.174;61.310;2022-12-29T01:22:40;2.00;;;1.80;;
11453;SDS011;5783;55.174;61.310;2022-12-29T01:25:10;2.20;;;1.80;;
11453;SDS011;5783;55.174;61.310;2022-12-29T01:27:40;2.23;;;1.73;;
11453;SDS011;5783;55.174;61.310;2022-12-29T01:30:09;2.10;;;1.90;;
11453;SDS011;5783;55.174;61.310;2022-12-29T01:32:39;2.47;;;2.10;;
11453;SDS011;5783;55.174;61.310;2022-12-29T01:35:08;2.53;;;2.07;;
11453;SDS011;5783;55.174;61.310;2022-12-29T01:37:37;2.83;;;2.33;;
11453;SDS011;5783;55.174;61.310;2022-12-29T01:40:26;3.67;;;2.80;;
11453;SDS011;5783;55.174;61.310;2022-12-29T01:42:55;4.73;;;3.37;;
11453;SDS011;5783;55.174;61.310;2022-12-29T01:45:24;4.43;;;3.50;;
11453;SDS011;5783;55.174;61.310;2022-12-29T01:47:55;5.33;;;3.80;;
11453;SDS011;5783;55.174;61.310;2022-12-29T01:53:16;6.93;;;4.53;;
11453;SDS011;5783;55.174;61.310;2022-12-29T01:58:39;7.00;;;5.10;;
11453;SDS011;5783;55.174;61.310;2022-12-29T02:01:10;7.37;;;4.97;;
11453;SDS011;5783;55.174;61.310;2022-12-29T02:03:39;8.57;;;5.53;;
11453;SDS011;5783;55.174;61.310;2022-12-29T02:08:59;8.00;;;6.10;;
11453;SDS011;5783;55.174;61.310;2022-12-29T02:11:29;9.80;;;6.43;;
11453;SDS011;5783;55.174;61.310;2022-12-29T02:13:59;8.63;;;6.27;;
11453;SDS011;5783;55.174;61.310;2022-12-29T02:47:15;17.30;;;10.73;;
11453;SDS011;5783;55.174;61.310;2022-12-29T02:53:13;18.83;;;10.87;;
11453;SDS011;5783;55.174;61.310;2022-12-29T02:58:35;18.60;;;11.03;;
11453;SDS011;5783;55.174;61.310;2022-12-29T03:16:48;21.17;;;11.50;;
11453;SDS011;5783;55.174;61.310;2022-12-29T03:19:52;19.50;;;11.43;;
11453;SDS011;5783;55.174;61.310;2022-12-29T03:28:11;19.50;;;10.17;;
11453;SDS011;5783;55.174;61.310;2022-12-29T03:31:00;15.87;;;10.83;;
11453;SDS011;5783;55.174;61.310;2022-12-29T03:33:32;17.53;;;9.97;;
11453;SDS011;5783;55.174;61.310;2022-12-29T03:39:12;16.60;;;9.17;;
11453;SDS011;5783;55.174;61.310;2022-12-29T03:41:42;15.60;;;9.50;;
11453;SDS011;5783;55.174;61.310;2022-12-29T03:44:13;16.80;;;9.83;;
11453;SDS011;5783;55.174;61.310;2022-12-29T03:46:42;15.00;;;8.67;;
11453;SDS011;5783;55.174;61.310;2022-12-29T03:49:11;14.17;;;8.13;;
11453;SDS011;5783;55.174;61.310;2022-12-29T03:51:41;12.67;;;6.80;;
11453;SDS011;5783;55.174;61.310;2022-12-29T03:54:10;10.53;;;7.03;;
11453;SDS011;5783;55.174;61.310;2022-12-29T03:56:39;12.40;;;6.63;;
11453;SDS011;5783;55.174;61.310;2022-12-29T03:59:08;12.83;;;7.10;;
11453;SDS011;5783;55.174;61.310;2022-12-29T04:01:37;12.47;;;7.10;;
11453;SDS011;5783;55.174;61.310;2022-12-29T04:04:06;11.60;;;6.90;;
11453;SDS011;5783;55.174;61.310;2022-12-29T04:06:36;12.73;;;7.20;;
11453;SDS011;5783;55.174;61.310;2022-12-29T04:09:05;12.57;;;6.97;;
11453;SDS011;5783;55.174;61.310;2022-12-29T04:11:35;11.73;;;7.50;;
11453;SDS011;5783;55.174;61.310;2022-12-29T04:14:05;15.17;;;7.83;;
11453;SDS011;5783;55.174;61.310;2022-12-29T04:16:35;14.00;;;7.40;;
11453;SDS011;5783;55.174;61.310;2022-12-29T04:19:05;13.90;;;8.23;;
11453;SDS011;5783;55.174;61.310;2022-12-29T04:21:34;13.33;;;8.10;;
11453;SDS011;5783;55.174;61.310;2022-12-29T04:24:03;13.50;;;8.13;;
11453;SDS011;5783;55.174;61.310;2022-12-29T04:26:33;16.90;;;9.37;;
11453;SDS011;5783;55.174;61.310;2022-12-29T04:29:02;18.20;;;11.13;;
11453;SDS011;5783;55.174;61.310;2022-12-29T04:31:31;16.90;;;10.00;;
11453;SDS011;5783;55.174;61.310;2022-12-29T04:34:00;16.03;;;9.73;;
11453;SDS011;5783;55.174;61.310;2022-12-29T04:36:29;16.80;;;9.73;;
11453;SDS011;5783;55.174;61.310;2022-12-29T04:38:58;22.10;;;10.80;;
11453;SDS011;5783;55.174;61.310;2022-12-29T04:41:27;17.33;;;10.43;;
11453;SDS011;5783;55.174;61.310;2022-12-29T04:43:57;18.53;;;10.70;;
11453;SDS011;5783;55.174;61.310;2022-12-29T04:46:25;20.07;;;10.90;;
11453;SDS011;5783;55.174;61.310;2022-12-29T04:48:55;16.77;;;10.33;;
11453;SDS011;5783;55.174;61.310;2022-12-29T04:51:23;17.33;;;10.00;;
11453;SDS011;5783;55.174;61.310;2022-12-29T04:53:51;16.90;;;9.47;;
11453;SDS011;5783;55.174;61.310;2022-12-29T04:56:21;20.97;;;10.10;;
11453;SDS011;5783;55.174;61.310;2022-12-29T04:58:49;17.63;;;10.20;;
11453;SDS011;5783;55.174;61.310;2022-12-29T05:01:21;15.90;;;9.53;;
11453;SDS011;5783;55.174;61.310;2022-12-29T05:03:50;27.77;;;11.13;;
11453;SDS011;5783;55.174;61.310;2022-12-29T05:06:19;23.43;;;10.57;;
11453;SDS011;5783;55.174;61.310;2022-12-29T05:08:48;23.20;;;10.13;;
11453;SDS011;5783;55.174;61.310;2022-12-29T05:11:17;21.90;;;9.50;;
11453;SDS011;5783;55.174;61.310;2022-12-29T05:13:45;21.77;;;9.50;;
11453;SDS011;5783;55.174;61.310;2022-12-29T05:16:15;18.90;;;8.53;;
11453;SDS011;5783;55.174;61.310;2022-12-29T05:18:44;21.53;;;8.93;;
11453;SDS011;5783;55.174;61.310;2022-12-29T05:21:13;19.03;;;8.43;;
11453;SDS011;5783;55.174;61.310;2022-12-29T05:23:42;17.03;;;8.53;;
11453;SDS011;5783;55.174;61.310;2022-12-29T05:26:11;15.53;;;7.80;;
11453;SDS011;5783;55.174;61.310;2022-12-29T05:28:40;16.23;;;8.90;;
11453;SDS011;5783;55.174;61.310;2022-12-29T05:31:09;15.30;;;7.97;;
11453;SDS011;5783;55.174;61.310;2022-12-29T05:33:38;15.70;;;8.03;;
11453;SDS011;5783;55.174;61.310;2022-12-29T05:36:08;15.77;;;8.13;;
11453;SDS011;5783;55.174;61.310;2022-12-29T05:38:37;16.70;;;8.53;;
11453;SDS011;5783;55.174;61.310;2022-12-29T05:41:06;14.23;;;8.10;;
11453;SDS011;5783;55.174;61.310;2022-12-29T05:43:36;13.53;;;8.20;;
11453;SDS011;5783;55.174;61.310;2022-12-29T05:46:05;15.53;;;9.10;;
11453;SDS011;5783;55.174;61.310;2022-12-29T05:48:34;18.07;;;8.77;;
11453;SDS011;5783;55.174;61.310;2022-12-29T05:51:03;15.77;;;9.10;;
11453;SDS011;5783;55.174;61.310;2022-12-29T05:53:32;17.67;;;9.63;;
11453;SDS011;5783;55.174;61.310;2022-12-29T05:56:02;15.33;;;8.87;;
11453;SDS011;5783;55.174;61.310;2022-12-29T05:58:51;16.50;;;9.00;;
11453;SDS011;5783;55.174;61.310;2022-12-29T06:01:20;14.73;;;8.43;;
11453;SDS011;5783;55.174;61.310;2022-12-29T06:03:49;14.50;;;9.50;;
11453;SDS011;5783;55.174;61.310;2022-12-29T06:06:18;18.50;;;9.90;;
11453;SDS011;5783;55.174;61.310;2022-12-29T06:08:47;20.97;;;10.47;;
11453;SDS011;5783;55.174;61.310;2022-12-29T06:11:16;17.37;;;10.70;;
11453;SDS011;5783;55.174;61.310;2022-12-29T06:13:46;20.47;;;11.27;;
11453;SDS011;5783;55.174;61.310;2022-12-29T06:16:15;16.90;;;10.43;;
11453;SDS011;5783;55.174;61.310;2022-12-29T06:18:44;18.90;;;11.40;;
11453;SDS011;5783;55.174;61.310;2022-12-29T06:21:14;19.13;;;10.70;;
11453;SDS011;5783;55.174;61.310;2022-12-29T06:23:43;21.20;;;10.83;;
11453;SDS011;5783;55.174;61.310;2022-12-29T06:26:12;23.80;;;11.10;;
11453;SDS011;5783;55.174;61.310;2022-12-29T06:28:42;21.00;;;12.20;;
11453;SDS011;5783;55.174;61.310;2022-12-29T06:31:10;22.73;;;12.27;;
11453;SDS011;5783;55.174;61.310;2022-12-29T06:33:40;21.53;;;12.43;;
11453;SDS011;5783;55.174;61.310;2022-12-29T06:36:09;21.57;;;12.33;;
11453;SDS011;5783;55.174;61.310;2022-12-29T06:38:37;23.63;;;12.07;;
11453;SDS011;5783;55.174;61.310;2022-12-29T06:41:06;20.97;;;12.47;;
11453;SDS011;5783;55.174;61.310;2022-12-29T06:43:35;21.67;;;12.20;;
11453;SDS011;5783;55.174;61.310;2022-12-29T06:46:04;19.67;;;12.03;;
11453;SDS011;5783;55.174;61.310;2022-12-29T06:48:32;21.93;;;11.73;;
11453;SDS011;5783;55.174;61.310;2022-12-29T06:51:02;20.17;;;11.73;;
11453;SDS011;5783;55.174;61.310;2022-12-29T06:53:31;20.73;;;11.63;;
11453;SDS011;5783;55.174;61.310;2022-12-29T06:55:59;18.07;;;11.23;;
11453;SDS011;5783;55.174;61.310;2022-12-29T06:58:48;18.13;;;11.33;;
11453;SDS011;5783;55.174;61.310;2022-12-29T07:01:16;20.63;;;11.33;;
11453;SDS011;5783;55.174;61.310;2022-12-29T07:03:45;19.57;;;10.40;;
11453;SDS011;5783;55.174;61.310;2022-12-29T07:06:14;17.03;;;10.43;;
11453;SDS011;5783;55.174;61.310;2022-12-29T07:08:42;21.23;;;11.17;;
11453;SDS011;5783;55.174;61.310;2022-12-29T07:11:11;15.73;;;9.57;;
11453;SDS011;5783;55.174;61.310;2022-12-29T07:13:40;22.07;;;10.70;;
11453;SDS011;5783;55.174;61.310;2022-12-29T07:16:08;19.83;;;9.20;;
11453;SDS011;5783;55.174;61.310;2022-12-29T07:18:38;15.67;;;9.27;;
11453;SDS011;5783;55.174;61.310;2022-12-29T07:21:07;17.63;;;8.70;;
11453;SDS011;5783;55.174;61.310;2022-12-29T07:23:36;14.57;;;8.70;;
11453;SDS011;5783;55.174;61.310;2022-12-29T07:26:05;13.97;;;8.03;;
11453;SDS011;5783;55.174;61.310;2022-12-29T07:28:34;16.70;;;8.00;;
11453;SDS011;5783;55.174;61.310;2022-12-29T07:31:04;14.23;;;8.70;;
11453;SDS011;5783;55.174;61.310;2022-12-29T07:33:35;14.53;;;8.90;;
11453;SDS011;5783;55.174;61.310;2022-12-29T07:36:04;15.57;;;9.83;;
11453;SDS011;5783;55.174;61.310;2022-12-29T07:38:34;15.00;;;9.67;;
11453;SDS011;5783;55.174;61.310;2022-12-29T07:41:03;16.07;;;9.73;;
11453;SDS011;5783;55.174;61.310;2022-12-29T07:43:32;15.87;;;9.53;;
11453;SDS011;5783;55.174;61.310;2022-12-29T07:46:02;13.33;;;8.73;;
11453;SDS011;5783;55.174;61.310;2022-12-29T07:48:32;12.10;;;7.77;;
11453;SDS011;5783;55.174;61.310;2022-12-29T07:51:01;13.20;;;8.20;;
11453;SDS011;5783;55.174;61.310;2022-12-29T07:53:30;11.50;;;7.47;;
11453;SDS011;5783;55.174;61.310;2022-12-29T07:56:00;10.87;;;7.10;;
11453;SDS011;5783;55.174;61.310;2022-12-29T07:58:48;12.63;;;7.47;;
11453;SDS011;5783;55.174;61.310;2022-12-29T08:01:17;12.20;;;8.03;;
11453;SDS011;5783;55.174;61.310;2022-12-29T08:03:48;13.70;;;8.10;;
11453;SDS011;5783;55.174;61.310;2022-12-29T08:06:19;13.70;;;8.37;;
11453;SDS011;5783;55.174;61.310;2022-12-29T08:08:48;14.63;;;8.17;;
11453;SDS011;5783;55.174;61.310;2022-12-29T08:11:17;12.73;;;8.90;;
11453;SDS011;5783;55.174;61.310;2022-12-29T08:13:46;13.30;;;8.47;;
11453;SDS011;5783;55.174;61.310;2022-12-29T08:16:17;14.27;;;8.53;;
11453;SDS011;5783;55.174;61.310;2022-12-29T08:18:46;13.00;;;7.60;;
11453;SDS011;5783;55.174;61.310;2022-12-29T08:21:16;12.30;;;7.77;;
11453;SDS011;5783;55.174;61.310;2022-12-29T08:23:45;11.13;;;7.33;;
11453;SDS011;5783;55.174;61.310;2022-12-29T08:26:16;11.37;;;7.27;;
11453;SDS011;5783;55.174;61.310;2022-12-29T08:28:45;14.43;;;7.93;;
11453;SDS011;5783;55.174;61.310;2022-12-29T08:31:14;12.80;;;7.70;;
11453;SDS011;5783;55.174;61.310;2022-12-29T08:33:43;12.47;;;7.90;;
11453;SDS011;5783;55.174;61.310;2022-12-29T08:36:31;12.37;;;7.43;;
11453;SDS011;5783;55.174;61.310;2022-12-29T08:39:01;10.63;;;7.43;;
11453;SDS011;5783;55.174;61.310;2022-12-29T08:41:30;11.80;;;6.73;;
11453;SDS011;5783;55.174;61.310;2022-12-29T08:43:59;11.87;;;7.03;;
11453;SDS011;5783;55.174;61.310;2022-12-29T08:46:28;12.83;;;7.60;;
11453;SDS011;5783;55.174;61.310;2022-12-29T08:49:17;11.13;;;7.27;;
11453;SDS011;5783;55.174;61.310;2022-12-29T08:51:46;12.37;;;7.10;;
11453;SDS011;5783;55.174;61.310;2022-12-29T08:54:15;12.10;;;7.20;;
11453;SDS011;5783;55.174;61.310;2022-12-29T08:56:44;12.47;;;7.43;;
11453;SDS011;5783;55.174;61.310;2022-12-29T08:59:13;10.43;;;7.10;;
11453;SDS011;5783;55.174;61.310;2022-12-29T09:01:42;12.03;;;7.47;;
11453;SDS011;5783;55.174;61.310;2022-12-29T09:04:12;12.40;;;6.93;;
11453;SDS011;5783;55.174;61.310;2022-12-29T09:06:41;11.90;;;7.13;;
11453;SDS011;5783;55.174;61.310;2022-12-29T09:09:10;11.70;;;7.23;;
11453;SDS011;5783;55.174;61.310;2022-12-29T09:11:40;10.80;;;6.60;;
11453;SDS011;5783;55.174;61.310;2022-12-29T09:14:10;12.00;;;7.03;;
11453;SDS011;5783;55.174;61.310;2022-12-29T09:16:41;10.33;;;6.90;;
11453;SDS011;5783;55.174;61.310;2022-12-29T09:19:30;11.77;;;6.97;;
11453;SDS011;5783;55.174;61.310;2022-12-29T09:21:59;11.47;;;6.80;;
11453;SDS011;5783;55.174;61.310;2022-12-29T09:24:28;10.17;;;6.47;;
11453;SDS011;5783;55.174;61.310;2022-12-29T09:26:58;10.73;;;7.20;;
11453;SDS011;5783;55.174;61.310;2022-12-29T09:29:27;11.87;;;7.30;;
11453;SDS011;5783;55.174;61.310;2022-12-29T09:31:56;13.17;;;7.73;;
11453;SDS011;5783;55.174;61.310;2022-12-29T09:34:25;12.90;;;7.33;;
11453;SDS011;5783;55.174;61.310;2022-12-29T09:36:54;11.63;;;7.43;;
11453;SDS011;5783;55.174;61.310;2022-12-29T09:39:24;12.17;;;8.03;;
11453;SDS011;5783;55.174;61.310;2022-12-29T09:42:27;12.80;;;7.97;;
11453;SDS011;5783;55.174;61.310;2022-12-29T09:47:51;11.57;;;7.47;;
11453;SDS011;5783;55.174;61.310;2022-12-29T09:56:01;13.13;;;8.20;;
11453;SDS011;5783;55.174;61.310;2022-12-29T10:04:32;13.27;;;8.47;;
11453;SDS011;5783;55.174;61.310;2022-12-29T10:07:03;12.00;;;7.93;;
11453;SDS011;5783;55.174;61.310;2022-12-29T10:24:04;13.97;;;8.40;;
11453;SDS011;5783;55.174;61.310;2022-12-29T10:26:38;13.67;;;8.53;;
11453;SDS011;5783;55.174;61.310;2022-12-29T10:35:25;16.30;;;8.93;;
11453;SDS011;5783;55.174;61.310;2022-12-29T10:37:58;15.83;;;8.90;;
11453;SDS011;5783;55.174;61.310;2022-12-29T10:41:41;12.80;;;8.37;;
11453;SDS011;5783;55.174;61.310;2022-12-29T10:43:56;12.10;;;8.00;;
11453;SDS011;5783;55.174;61.310;2022-12-29T10:46:28;12.97;;;8.30;;
11453;SDS011;5783;55.174;61.310;2022-12-29T10:49:18;13.03;;;7.80;;
11453;SDS011;5783;55.174;61.310;2022-12-29T10:51:47;13.80;;;8.23;;
11453;SDS011;5783;55.174;61.310;2022-12-29T10:59:59;14.27;;;8.83;;
11453;SDS011;5783;55.174;61.310;2022-12-29T11:02:37;14.50;;;8.60;;
11453;SDS011;5783;55.174;61.310;2022-12-29T11:05:03;13.13;;;8.23;;
11453;SDS011;5783;55.174;61.310;2022-12-29T11:07:34;13.67;;;9.07;;
11453;SDS011;5783;55.174;61.310;2022-12-29T11:15:47;16.30;;;9.93;;
11453;SDS011;5783;55.174;61.310;2022-12-29T11:18:18;13.50;;;9.43;;
11453;SDS011;5783;55.174;61.310;2022-12-29T11:29:55;14.00;;;8.50;;
11453;SDS011;5783;55.174;61.310;2022-12-29T11:38:23;11.17;;;7.60;;
11453;SDS011;5783;55.174;61.310;2022-12-29T11:40:54;13.57;;;8.13;;
11453;SDS011;5783;55.174;61.310;2022-12-29T11:43:26;11.27;;;7.77;;
11453;SDS011;5783;55.174;61.310;2022-12-29T11:45:58;12.77;;;8.30;;
11453;SDS011;5783;55.174;61.310;2022-12-29T11:48:32;13.37;;;8.13;;
11453;SDS011;5783;55.174;61.310;2022-12-29T11:51:01;14.87;;;8.93;;
11453;SDS011;5783;55.174;61.310;2022-12-29T11:56:40;12.13;;;8.20;;
11453;SDS011;5783;55.174;61.310;2022-12-29T12:11:28;13.07;;;9.17;;
11453;SDS011;5783;55.174;61.310;2022-12-29T12:19:43;13.73;;;10.30;;
11453;SDS011;5783;55.174;61.310;2022-12-29T12:25:04;17.03;;;10.83;;
11453;SDS011;5783;55.174;61.310;2022-12-29T12:30:45;13.37;;;9.23;;
11453;SDS011;5783;55.174;61.310;2022-12-29T13:25:28;9.13;;;7.07;;
11453;SDS011;5783;55.174;61.310;2022-12-29T13:34:20;10.37;;;7.03;;
11453;SDS011;5783;55.174;61.310;2022-12-29T13:39:56;9.93;;;7.47;;
11453;SDS011;5783;55.174;61.310;2022-12-29T13:42:29;9.93;;;7.30;;
11453;SDS011;5783;55.174;61.310;2022-12-29T13:50:58;10.47;;;8.20;;
11453;SDS011;5783;55.174;61.310;2022-12-29T14:13:21;12.63;;;8.87;;
11453;SDS011;5783;55.174;61.310;2022-12-29T14:18:42;10.70;;;8.10;;
11453;SDS011;5783;55.174;61.310;2022-12-29T14:24:26;7.97;;;6.70;;
11453;SDS011;5783;55.174;61.310;2022-12-29T14:26:50;10.47;;;7.27;;
11453;SDS011;5783;55.174;61.310;2022-12-29T14:35:31;7.27;;;5.67;;
11453;SDS011;5783;55.174;61.310;2022-12-29T14:37:51;6.50;;;5.43;;
11453;SDS011;5783;55.174;61.310;2022-12-29T14:40:23;7.23;;;5.37;;
11453;SDS011;5783;55.174;61.310;2022-12-29T14:42:54;8.80;;;5.30;;
11453;SDS011;5783;55.174;61.310;2022-12-29T14:57:04;6.00;;;4.90;;
11453;SDS011;5783;55.174;61.310;2022-12-29T14:59:35;6.77;;;5.17;;
11453;SDS011;5783;55.174;61.310;2022-12-29T15:02:11;6.60;;;5.10;;
11453;SDS011;5783;55.174;61.310;2022-12-29T15:04:54;6.40;;;5.10;;
11453;SDS011;5783;55.174;61.310;2022-12-29T15:07:27;6.47;;;5.13;;
11453;SDS011;5783;55.174;61.310;2022-12-29T15:10:00;5.63;;;4.60;;
11453;SDS011;5783;55.174;61.310;2022-12-29T15:13:13;5.97;;;4.90;;
11453;SDS011;5783;55.174;61.310;2022-12-29T15:15:37;6.47;;;4.90;;
11453;SDS011;5783;55.174;61.310;2022-12-29T15:21:15;6.07;;;5.10;;
11453;SDS011;5783;55.174;61.310;2022-12-29T15:23:47;6.47;;;5.30;;
11453;SDS011;5783;55.174;61.310;2022-12-29T15:26:19;5.43;;;4.60;;
11453;SDS011;5783;55.174;61.310;2022-12-29T15:28:50;6.03;;;4.80;;
11453;SDS011;5783;55.174;61.310;2022-12-29T15:31:21;5.80;;;4.50;;
11453;SDS011;5783;55.174;61.310;2022-12-29T15:36:43;5.83;;;4.23;;
11453;SDS011;5783;55.174;61.310;2022-12-29T15:45:10;5.70;;;3.97;;
11453;SDS011;5783;55.174;61.310;2022-12-29T15:47:41;4.97;;;4.20;;
11453;SDS011;5783;55.174;61.310;2022-12-29T15:53:08;3.83;;;3.43;;
11453;SDS011;5783;55.174;61.310;2022-12-29T15:55:38;4.73;;;3.80;;
11453;SDS011;5783;55.174;61.310;2022-12-29T16:00:59;4.70;;;4.00;;
11453;SDS011;5783;55.174;61.310;2022-12-29T16:11:59;4.10;;;3.67;;
11453;SDS011;5783;55.174;61.310;2022-12-29T16:23:50;5.70;;;3.50;;
11453;SDS011;5783;55.174;61.310;2022-12-29T16:25:48;4.70;;;3.57;;
11453;SDS011;5783;55.174;61.310;2022-12-29T16:28:20;4.40;;;3.37;;
11453;SDS011;5783;55.174;61.310;2022-12-29T16:31:23;3.50;;;3.20;;
11453;SDS011;5783;55.174;61.310;2022-12-29T16:40:29;3.87;;;3.47;;
11453;SDS011;5783;55.174;61.310;2022-12-29T16:42:48;4.10;;;3.70;;
11453;SDS011;5783;55.174;61.310;2022-12-29T16:56:57;3.73;;;3.20;;
11453;SDS011;5783;55.174;61.310;2022-12-29T17:02:16;3.30;;;3.00;;
11453;SDS011;5783;55.174;61.310;2022-12-29T17:04:48;3.43;;;3.07;;
11453;SDS011;5783;55.174;61.310;2022-12-29T17:07:20;3.43;;;3.13;;
11453;SDS011;5783;55.174;61.310;2022-12-29T17:09:51;3.50;;;3.20;;
11453;SDS011;5783;55.174;61.310;2022-12-29T17:14:53;3.80;;;3.37;;
11453;SDS011;5783;55.174;61.310;2022-12-29T17:17:43;3.57;;;3.23;;
11453;SDS011;5783;55.174;61.310;2022-12-29T17:22:47;3.07;;;2.77;;
11453;SDS011;5783;55.174;61.310;2022-12-29T17:27:51;3.47;;;3.17;;
11453;SDS011;5783;55.174;61.310;2022-12-29T17:30:23;4.00;;;3.10;;
11453;SDS011;5783;55.174;61.310;2022-12-29T17:35:43;3.90;;;3.00;;
11453;SDS011;5783;55.174;61.310;2022-12-29T17:40:45;3.33;;;3.03;;
11453;SDS011;5783;55.174;61.310;2022-12-29T17:43:15;3.70;;;3.20;;
11453;SDS011;5783;55.174;61.310;2022-12-29T17:45:46;3.83;;;3.10;;
11453;SDS011;5783;55.174;61.310;2022-12-29T17:48:17;5.43;;;3.30;;
11453;SDS011;5783;55.174;61.310;2022-12-29T17:50:48;5.70;;;4.00;;
11453;SDS011;5783;55.174;61.310;2022-12-29T17:56:06;4.50;;;3.50;;
11453;SDS011;5783;55.174;61.310;2022-12-29T17:58:35;4.83;;;3.40;;
11453;SDS011;5783;55.174;61.310;2022-12-29T18:01:03;5.33;;;3.60;;
11453;SDS011;5783;55.174;61.310;2022-12-29T18:03:34;3.90;;;2.97;;
11453;SDS011;5783;55.174;61.310;2022-12-29T18:06:06;5.93;;;3.50;;
11453;SDS011;5783;55.174;61.310;2022-12-29T18:08:36;4.47;;;3.30;;
11453;SDS011;5783;55.174;61.310;2022-12-29T18:14:34;4.83;;;3.27;;
11453;SDS011;5783;55.174;61.310;2022-12-29T18:17:08;4.60;;;3.13;;
11453;SDS011;5783;55.174;61.310;2022-12-29T18:19:33;4.67;;;3.70;;
11453;SDS011;5783;55.174;61.310;2022-12-29T18:22:01;5.57;;;3.30;;
11453;SDS011;5783;55.174;61.310;2022-12-29T18:24:30;5.53;;;3.47;;
11453;SDS011;5783;55.174;61.310;2022-12-29T18:26:59;5.47;;;3.30;;
11453;SDS011;5783;55.174;61.310;2022-12-29T18:29:27;6.17;;;3.90;;
11453;SDS011;5783;55.174;61.310;2022-12-29T18:32:16;4.60;;;3.70;;
11453;SDS011;5783;55.174;61.310;2022-12-29T18:34:44;5.73;;;4.20;;
11453;SDS011;5783;55.174;61.310;2022-12-29T18:37:14;5.40;;;3.73;;
11453;SDS011;5783;55.174;61.310;2022-12-29T18:39:42;5.03;;;3.70;;
11453;SDS011;5783;55.174;61.310;2022-12-29T18:42:14;5.43;;;3.93;;
11453;SDS011;5783;55.174;61.310;2022-12-29T18:44:42;6.33;;;3.93;;
11453;SDS011;5783;55.174;61.310;2022-12-29T18:47:10;7.00;;;4.17;;
11453;SDS011;5783;55.174;61.310;2022-12-29T18:49:39;5.07;;;3.80;;
11453;SDS011;5783;55.174;61.310;2022-12-29T18:52:10;5.07;;;3.80;;
11453;SDS011;5783;55.174;61.310;2022-12-29T18:54:38;6.43;;;4.13;;
11453;SDS011;5783;55.174;61.310;2022-12-29T18:57:06;5.10;;;3.90;;
11453;SDS011;5783;55.174;61.310;2022-12-29T18:59:35;6.13;;;4.20;;
11453;SDS011;5783;55.174;61.310;2022-12-29T19:02:03;6.20;;;4.33;;
11453;SDS011;5783;55.174;61.310;2022-12-29T19:04:33;4.93;;;3.90;;
11453;SDS011;5783;55.174;61.310;2022-12-29T19:07:02;4.80;;;3.70;;
11453;SDS011;5783;55.174;61.310;2022-12-29T19:09:31;5.40;;;4.00;;
11453;SDS011;5783;55.174;61.310;2022-12-29T19:12:00;5.30;;;4.10;;
11453;SDS011;5783;55.174;61.310;2022-12-29T19:14:29;4.73;;;4.20;;
11453;SDS011;5783;55.174;61.310;2022-12-29T19:16:57;5.87;;;4.30;;
11453;SDS011;5783;55.174;61.310;2022-12-29T19:19:27;5.70;;;4.40;;
11453;SDS011;5783;55.174;61.310;2022-12-29T19:21:55;5.07;;;4.13;;
11453;SDS011;5783;55.174;61.310;2022-12-29T19:24:24;8.00;;;5.13;;
11453;SDS011;5783;55.174;61.310;2022-12-29T19:26:53;7.80;;;4.57;;
11453;SDS011;5783;55.174;61.310;2022-12-29T19:29:22;6.63;;;4.77;;
11453;SDS011;5783;55.174;61.310;2022-12-29T19:31:51;6.10;;;4.40;;
11453;SDS011;5783;55.174;61.310;2022-12-29T19:34:20;6.60;;;4.47;;
11453;SDS011;5783;55.174;61.310;2022-12-29T19:36:48;6.43;;;4.33;;
11453;SDS011;5783;55.174;61.310;2022-12-29T19:39:17;7.20;;;4.17;;
11453;SDS011;5783;55.174;61.310;2022-12-29T19:41:46;8.00;;;4.33;;
11453;SDS011;5783;55.174;61.310;2022-12-29T19:44:14;6.27;;;4.00;;
11453;SDS011;5783;55.174;61.310;2022-12-29T19:46:44;7.33;;;4.40;;
11453;SDS011;5783;55.174;61.310;2022-12-29T19:49:13;9.47;;;4.30;;
11453;SDS011;5783;55.174;61.310;2022-12-29T19:54:07;5.80;;;4.27;;
11453;SDS011;5783;55.174;61.310;2022-12-29T19:56:36;5.10;;;4.33;;
11453;SDS011;5783;55.174;61.310;2022-12-29T19:59:07;3.80;;;3.40;;
11453;SDS011;5783;55.174;61.310;2022-12-29T20:01:36;4.43;;;3.70;;
11453;SDS011;5783;55.174;61.310;2022-12-29T20:04:05;4.60;;;3.93;;
11453;SDS011;5783;55.174;61.310;2022-12-29T20:06:35;5.03;;;4.40;;
11453;SDS011;5783;55.174;61.310;2022-12-29T20:09:04;4.33;;;3.77;;
11453;SDS011;5783;55.174;61.310;2022-12-29T20:11:33;4.90;;;3.80;;
11453;SDS011;5783;55.174;61.310;2022-12-29T20:14:02;5.37;;;4.20;;
11453;SDS011;5783;55.174;61.310;2022-12-29T20:16:32;5.10;;;4.20;;
11453;SDS011;5783;55.174;61.310;2022-12-29T20:19:01;4.80;;;4.03;;
11453;SDS011;5783;55.174;61.310;2022-12-29T20:21:30;4.83;;;4.00;;
11453;SDS011;5783;55.174;61.310;2022-12-29T20:24:19;4.67;;;3.60;;
11453;SDS011;5783;55.174;61.310;2022-12-29T20:26:48;5.40;;;4.03;;
11453;SDS011;5783;55.174;61.310;2022-12-29T20:29:19;5.27;;;4.23;;
11453;SDS011;5783;55.174;61.310;2022-12-29T20:31:49;4.67;;;3.73;;
11453;SDS011;5783;55.174;61.310;2022-12-29T20:34:19;4.97;;;4.20;;
11453;SDS011;5783;55.174;61.310;2022-12-29T20:36:48;4.67;;;4.10;;
11453;SDS011;5783;55.174;61.310;2022-12-29T20:39:17;5.30;;;3.93;;
11453;SDS011;5783;55.174;61.310;2022-12-29T20:41:47;5.23;;;4.20;;
11453;SDS011;5783;55.174;61.310;2022-12-29T20:44:18;5.87;;;4.23;;
11453;SDS011;5783;55.174;61.310;2022-12-29T20:46:48;5.63;;;4.53;;
11453;SDS011;5783;55.174;61.310;2022-12-29T20:49:17;5.00;;;4.20;;
11453;SDS011;5783;55.174;61.310;2022-12-29T20:51:46;4.47;;;3.83;;
11453;SDS011;5783;55.174;61.310;2022-12-29T20:54:15;5.43;;;4.43;;
11453;SDS011;5783;55.174;61.310;2022-12-29T20:56:45;4.70;;;4.20;;